This is the latest recevied weather packets stored in our database for station/object M0TUM-1. If no packets are shown the sender has not sent any weather packets the latest 1 day(s).
| Time | Temp. | Humidity | Pressure | Rain* | Wind** | Luminosity | Snow |
|---|---|---|---|---|---|---|---|
| 1777995266 | 13.89° C | 65% | 1012.5 hPa | 0 mm | 2.24 m/s, 141° | 150 W/m² | - |
| 1777994963 | 13.89° C | 65% | 1012.4 hPa | 0 mm | 0.89 m/s, 189° | 380 W/m² | - |
| 1777994660 | 13.89° C | 64% | 1012.6 hPa | 0 mm | 1.34 m/s, 5° | 177 W/m² | - |
| 1777994360 | 13.89° C | 64% | 1012.6 hPa | 0 mm | 1.79 m/s, 66° | 177 W/m² | - |
| 1777994056 | 13.89° C | 64% | 1012.7 hPa | 0 mm | 1.34 m/s, 184° | 165 W/m² | - |
| 1777993754 | 13.89° C | 64% | 1012.5 hPa | 0 mm | 2.24 m/s, 25° | 216 W/m² | - |
| 1777993450 | 14.44° C | 63% | 1012.6 hPa | 0 mm | 0.89 m/s, 61° | 225 W/m² | - |
| 1777993144 | 13.89° C | 65% | 1012.5 hPa | 0 mm | 1.34 m/s, 13° | 203 W/m² | - |
| 1777992843 | 14.44° C | 64% | 1012.6 hPa | 0 mm | 0.89 m/s, 286° | 188 W/m² | - |
| 1777992540 | 13.89° C | 65% | 1012.8 hPa | 0 mm | 2.24 m/s, 14° | 188 W/m² | - |
| 1777992238 | 13.89° C | 66% | 1012.6 hPa | 0 mm | 1.79 m/s, 93° | 204 W/m² | - |
| 1777991935 | 14.44° C | 66% | 1012.6 hPa | 0 mm | 1.79 m/s, 85° | 217 W/m² | - |
| 1777991633 | 14.44° C | 66% | 1012.8 hPa | 0 mm | 1.79 m/s, 35° | 196 W/m² | - |
| 1777991330 | 13.89° C | 66% | 1012.8 hPa | 0 mm | 0.89 m/s, 318° | 189 W/m² | - |
| 1777991027 | 14.44° C | 66% | 1012.8 hPa | 0 mm | 1.79 m/s, 90° | 147 W/m² | - |
| 1777990724 | 14.44° C | 65% | 1012.6 hPa | 0 mm | 0.45 m/s, 59° | 133 W/m² | - |
| 1777990421 | 15° C | 64% | 1012.7 hPa | 0 mm | 1.79 m/s, 46° | 176 W/m² | - |
| 1777990118 | 14.44° C | 64% | 1012.7 hPa | 0 mm | 0.89 m/s, 10° | 164 W/m² | - |
| 1777989814 | 15° C | 62% | 1012.7 hPa | 0 mm | 0 m/s | 161 W/m² | - |
| 1777989512 | 15° C | 60% | 1012.7 hPa | 0 mm | 2.24 m/s, 28° | 195 W/m² | - |
| 1777989208 | 15° C | 59% | 1012.5 hPa | 0 mm | 0.89 m/s, 72° | 188 W/m² | - |
| 1777988904 | 15.56° C | 58% | 1012.3 hPa | 0 mm | 0.89 m/s, 123° | 213 W/m² | - |
| 1777988601 | 15.56° C | 57% | 1012.5 hPa | 0 mm | 0.45 m/s, 236° | 227 W/m² | - |
| 1777988298 | 16.11° C | 56% | 1012.6 hPa | 0 mm | 0.45 m/s, 212° | 245 W/m² | - |
| 1777987995 | 16.67° C | 54% | 1012.4 hPa | 0 mm | 0.89 m/s, 67° | 321 W/m² | - |
* Rain latest hour (hover to see other rain measurements)
** Current wind speed in m/s (hover to see current wind gust speed)